createdAt,value
2019-05-12T00:00:40.886Z,45.12
2019-05-12T00:01:41.116Z,40.77
2019-05-12T00:02:41.331Z,41.57
2019-05-12T00:03:41.529Z,43.83
2019-05-12T00:04:41.711Z,41.57
2019-05-12T00:05:41.896Z,43.83
2019-05-12T00:06:42.082Z,44.79
2019-05-12T00:07:42.299Z,43.34
2019-05-12T00:08:42.509Z,51.24
2019-05-12T00:09:42.731Z,43.83
2019-05-12T00:10:42.942Z,54.30
2019-05-12T00:11:43.129Z,43.51
2019-05-12T00:12:43.294Z,48.98
2019-05-12T00:13:43.529Z,46.73
2019-05-12T00:14:43.686Z,42.06
2019-05-12T00:15:43.868Z,41.41
2019-05-12T00:16:44.032Z,47.86
2019-05-12T00:17:44.160Z,47.53
2019-05-12T00:18:44.342Z,52.37
2019-05-12T00:19:44.504Z,44.79
2019-05-12T00:20:44.657Z,72.67
2019-05-12T00:21:44.823Z,45.60
2019-05-12T00:22:44.982Z,43.99
2019-05-12T00:23:47.180Z,41.09
2019-05-12T00:24:47.760Z,73.64
2019-05-12T00:25:45.425Z,51.72
2019-05-12T00:26:47.629Z,48.50
2019-05-12T00:27:48.273Z,42.86
2019-05-12T00:28:47.817Z,46.08
2019-05-12T00:29:48.393Z,49.31
2019-05-12T00:30:48.596Z,43.83
2019-05-12T00:31:47.774Z,48.66
2019-05-12T00:32:47.885Z,46.89
2019-05-12T00:33:48.107Z,74.28
2019-05-12T00:34:48.065Z,45.92
2019-05-12T00:35:48.463Z,74.28
2019-05-12T00:36:48.695Z,49.15
2019-05-12T00:37:48.723Z,48.82
2019-05-12T00:38:48.882Z,43.99
2019-05-12T00:39:48.175Z,46.89
2019-05-12T00:40:48.205Z,42.54
2019-05-12T00:41:48.397Z,48.34
2019-05-12T00:42:48.591Z,47.53
2019-05-12T00:43:49.770Z,40.77
2019-05-12T00:44:48.912Z,46.73
2019-05-12T00:45:49.108Z,50.11
2019-05-12T00:46:49.271Z,41.25
2019-05-12T00:47:49.433Z,44.47
2019-05-12T00:48:49.610Z,47.86
2019-05-12T00:49:50.397Z,50.60
2019-05-12T00:50:50.969Z,43.83
2019-05-12T00:51:50.102Z,44.63
2019-05-12T00:52:50.282Z,43.18
2019-05-12T00:53:50.451Z,40.93
2019-05-12T00:54:50.629Z,40.93
2019-05-12T00:55:50.821Z,40.61
2019-05-12T00:56:51.000Z,40.61
2019-05-12T00:57:51.164Z,46.73
2019-05-12T00:58:51.313Z,43.02
2019-05-12T00:59:52.495Z,40.77
2019-05-12T01:00:51.643Z,43.02
2019-05-12T01:01:51.865Z,42.22
2019-05-12T01:02:52.055Z,42.22
2019-05-12T01:03:52.263Z,41.57
2019-05-12T01:04:52.435Z,61.39
2019-05-12T01:05:52.631Z,58.81
2019-05-12T01:06:52.876Z,42.86
2019-05-12T01:07:53.083Z,40.61
2019-05-12T01:08:53.286Z,40.61
2019-05-12T01:09:53.469Z,40.61
2019-05-12T01:10:53.638Z,47.53
2019-05-12T01:11:53.877Z,40.28
2019-05-12T01:12:54.044Z,41.09
2019-05-12T01:13:54.230Z,42.06
2019-05-12T01:14:54.368Z,40.61
2019-05-12T01:15:55.532Z,39.96
2019-05-12T01:16:54.689Z,40.12
2019-05-12T01:17:54.889Z,40.44
2019-05-12T01:18:55.050Z,47.53
2019-05-12T01:19:55.230Z,41.41
2019-05-12T01:20:55.422Z,40.93
2019-05-12T01:21:55.597Z,40.12
2019-05-12T01:22:57.907Z,40.44
2019-05-12T01:24:00.522Z,40.77
2019-05-12T01:24:58.043Z,48.02
2019-05-12T01:25:58.586Z,40.61
2019-05-12T01:26:58.218Z,49.47
2019-05-12T01:27:58.909Z,42.54
2019-05-12T01:28:58.102Z,40.44
2019-05-12T01:29:58.126Z,41.41
2019-05-12T01:30:58.273Z,42.06
2019-05-12T01:31:58.621Z,40.77
2019-05-12T01:32:58.602Z,45.44
2019-05-12T01:33:58.560Z,41.89
2019-05-12T01:34:58.775Z,42.86
2019-05-12T01:35:58.623Z,44.15
2019-05-12T01:36:59.103Z,45.60
2019-05-12T01:38:01.347Z,41.09
2019-05-12T01:39:01.885Z,40.93
2019-05-12T01:40:00.072Z,40.44
2019-05-12T01:40:59.732Z,40.44
2019-05-12T01:41:58.856Z,44.31
2019-05-12T01:42:59.002Z,43.99
2019-05-12T01:43:59.157Z,47.86
2019-05-12T01:44:59.303Z,41.09
2019-05-12T01:45:59.436Z,39.96
2019-05-12T01:46:59.582Z,40.28
2019-05-12T01:47:59.724Z,40.12
2019-05-12T01:48:59.888Z,40.77
2019-05-12T01:50:00.024Z,43.67
2019-05-12T01:51:00.151Z,41.09
2019-05-12T01:52:00.317Z,40.93
2019-05-12T01:53:00.451Z,46.57
2019-05-12T01:54:10.700Z,48.50
2019-05-12T01:55:02.767Z,40.28
2019-05-12T01:56:00.864Z,41.41
2019-05-12T01:57:01.004Z,47.05
2019-05-12T01:58:01.154Z,40.44
2019-05-12T01:59:01.350Z,42.38
2019-05-12T02:00:01.508Z,40.28
2019-05-12T02:01:02.999Z,41.41
2019-05-12T02:02:02.809Z,40.61
2019-05-12T02:03:01.938Z,42.22
2019-05-12T02:04:02.116Z,41.57
2019-05-12T02:05:02.276Z,50.92
2019-05-12T02:06:02.459Z,39.96
2019-05-12T02:07:02.600Z,41.41
2019-05-12T02:08:02.761Z,40.77
2019-05-12T02:09:02.918Z,41.73
2019-05-12T02:10:03.096Z,43.02
2019-05-12T02:11:03.252Z,40.28
2019-05-12T02:12:03.375Z,52.85
2019-05-12T02:13:03.493Z,52.21
2019-05-12T02:14:03.637Z,45.92
2019-05-12T02:15:03.794Z,43.34
2019-05-12T02:16:03.960Z,41.57
2019-05-12T02:17:04.205Z,42.54
2019-05-12T02:18:04.463Z,47.37
2019-05-12T02:19:04.607Z,40.44
2019-05-12T02:20:04.785Z,44.63
2019-05-12T02:21:04.928Z,45.12
2019-05-12T02:22:05.090Z,46.08
2019-05-12T02:23:05.253Z,40.77
2019-05-12T02:24:07.591Z,43.67
2019-05-12T02:25:07.945Z,60.75
2019-05-12T02:26:08.093Z,55.11
2019-05-12T02:27:08.170Z,53.50
2019-05-12T02:28:06.028Z,46.41
2019-05-12T02:29:07.862Z,43.67
2019-05-12T02:30:09.881Z,42.54
2019-05-12T02:31:09.263Z,46.25
2019-05-12T02:32:06.772Z,48.98
2019-05-12T02:33:06.957Z,47.05
2019-05-12T02:34:07.118Z,48.34
2019-05-12T02:35:07.277Z,40.12
2019-05-12T02:36:07.411Z,40.93
2019-05-12T02:37:07.609Z,42.70
2019-05-12T02:38:07.740Z,46.89
2019-05-12T02:39:07.889Z,41.25
2019-05-12T02:40:08.117Z,67.19
2019-05-12T02:41:08.269Z,45.92
2019-05-12T02:42:08.442Z,49.95
2019-05-12T02:43:08.610Z,52.37
2019-05-12T02:44:08.773Z,73.15
2019-05-12T02:45:08.918Z,52.53
2019-05-12T02:46:09.092Z,50.60
2019-05-12T02:47:09.250Z,48.18
2019-05-12T02:48:09.416Z,55.11
2019-05-12T02:49:09.590Z,50.60
2019-05-12T02:50:09.729Z,51.88
2019-05-12T02:51:09.912Z,53.01
2019-05-12T02:52:10.058Z,53.01
2019-05-12T02:53:14.229Z,57.36
2019-05-12T02:54:10.433Z,58.49
2019-05-12T02:55:10.602Z,62.36
2019-05-12T02:56:10.821Z,55.43
2019-05-12T02:57:10.973Z,55.59
2019-05-12T02:58:11.133Z,57.20
2019-05-12T02:59:11.304Z,63.81
2019-05-12T03:00:11.476Z,64.61
2019-05-12T03:01:11.655Z,62.36
2019-05-12T03:02:14.162Z,61.55
2019-05-12T03:03:14.765Z,60.59
2019-05-12T03:04:14.490Z,71.38
2019-05-12T03:05:14.856Z,64.45
2019-05-12T03:06:15.119Z,63.65
2019-05-12T03:07:15.366Z,66.39
2019-05-12T03:08:15.357Z,61.39
2019-05-12T03:09:15.095Z,62.52
2019-05-12T03:10:14.669Z,62.52
2019-05-12T03:11:14.901Z,61.71
2019-05-12T03:12:14.696Z,62.84
2019-05-12T03:13:14.975Z,72.19
2019-05-12T03:14:15.618Z,63.49
2019-05-12T03:15:15.410Z,61.07
2019-05-12T03:16:15.166Z,62.04
2019-05-12T03:17:15.651Z,63.00
2019-05-12T03:18:14.896Z,62.68
2019-05-12T03:19:15.287Z,63.33
2019-05-12T03:20:16.098Z,61.87
2019-05-12T03:21:15.471Z,61.39
2019-05-12T03:22:16.438Z,60.75
2019-05-12T03:23:19.341Z,58.33
2019-05-12T03:24:17.578Z,58.81
2019-05-12T03:25:24.769Z,81.37
2019-05-12T03:26:18.179Z,60.42
2019-05-12T03:27:17.702Z,62.04
2019-05-12T03:28:17.515Z,65.10
2019-05-12T03:29:16.643Z,63.81
2019-05-12T03:30:19.496Z,64.61
2019-05-12T03:31:23.620Z,64.29
2019-05-12T03:32:19.200Z,49.15
2019-05-12T03:33:19.436Z,66.06
2019-05-12T03:34:20.066Z,66.55
2019-05-12T03:35:18.703Z,65.58
2019-05-12T03:36:18.622Z,62.04
2019-05-12T03:37:18.636Z,66.71
2019-05-12T03:38:19.317Z,54.14
2019-05-12T03:39:18.467Z,72.83
2019-05-12T03:40:18.635Z,70.58
2019-05-12T03:41:18.776Z,74.60
2019-05-12T03:42:18.937Z,67.51
2019-05-12T03:43:19.180Z,71.38
2019-05-12T03:44:19.388Z,72.35
2019-05-12T03:45:19.557Z,67.19
2019-05-12T03:46:19.706Z,66.55
2019-05-12T03:47:19.857Z,65.58
2019-05-12T03:48:20.073Z,66.87
2019-05-12T03:49:20.285Z,65.26
2019-05-12T03:50:20.423Z,64.29
2019-05-12T03:51:20.595Z,68.80
2019-05-12T03:52:24.385Z,62.36
2019-05-12T03:53:24.792Z,60.42
2019-05-12T03:54:24.453Z,60.59
2019-05-12T03:55:31.792Z,59.46
2019-05-12T03:56:25.851Z,60.26
2019-05-12T03:57:21.658Z,59.46
2019-05-12T03:58:21.830Z,63.81
2019-05-12T03:59:25.343Z,78.47
2019-05-12T04:00:24.758Z,58.81
2019-05-12T04:01:25.557Z,62.20
2019-05-12T04:02:24.969Z,77.83
2019-05-12T04:03:24.727Z,63.81
2019-05-12T04:04:24.539Z,63.16
2019-05-12T04:05:24.508Z,69.13
2019-05-12T04:06:24.735Z,68.96
2019-05-12T04:07:24.542Z,61.87
2019-05-12T04:08:24.633Z,73.32
2019-05-12T04:09:24.803Z,72.99
2019-05-12T04:10:24.782Z,61.71
2019-05-12T04:11:25.235Z,61.87
2019-05-12T04:12:25.532Z,62.36
2019-05-12T04:13:26.540Z,54.79
2019-05-12T04:14:25.583Z,67.03
2019-05-12T04:15:25.582Z,56.72
2019-05-12T04:16:26.051Z,54.79
2019-05-12T04:17:25.207Z,54.95
2019-05-12T04:18:25.365Z,55.11
2019-05-12T04:19:25.526Z,48.82
2019-05-12T04:20:25.764Z,65.10
2019-05-12T04:21:25.819Z,66.71
2019-05-12T04:22:26.006Z,66.06
2019-05-12T04:23:26.164Z,74.93
2019-05-12T04:24:26.332Z,59.62
2019-05-12T04:25:44.729Z,52.85
2019-05-12T04:26:27.786Z,56.07
2019-05-12T04:27:26.956Z,56.72
2019-05-12T04:28:27.126Z,61.71
2019-05-12T04:29:27.311Z,46.25
2019-05-12T04:30:27.458Z,49.63
2019-05-12T04:31:27.608Z,57.85
2019-05-12T04:32:27.743Z,62.84
2019-05-12T04:33:28.896Z,75.09
2019-05-12T04:34:28.140Z,60.75
2019-05-12T04:35:29.283Z,63.33
2019-05-12T04:36:28.423Z,66.23
2019-05-12T04:37:28.601Z,52.05
2019-05-12T04:38:28.723Z,68.00
2019-05-12T04:39:28.863Z,59.62
2019-05-12T04:40:29.005Z,58.33
2019-05-12T04:41:29.146Z,66.39
2019-05-12T04:42:29.290Z,68.64
2019-05-12T04:43:29.427Z,69.13
2019-05-12T04:44:29.565Z,63.16
2019-05-12T04:45:29.762Z,52.69
2019-05-12T04:46:29.915Z,64.45
2019-05-12T04:47:30.087Z,46.57
2019-05-12T04:48:30.264Z,46.25
2019-05-12T04:49:30.427Z,47.53
2019-05-12T04:50:30.594Z,67.35
2019-05-12T04:51:30.780Z,62.68
2019-05-12T04:52:30.961Z,53.66
2019-05-12T04:53:31.117Z,45.44
2019-05-12T04:54:31.310Z,52.53
2019-05-12T04:55:31.486Z,54.46
2019-05-12T04:56:35.403Z,51.40
2019-05-12T04:57:34.692Z,59.62
2019-05-12T04:58:35.031Z,58.97
2019-05-12T04:59:34.491Z,65.42
2019-05-12T05:00:34.825Z,65.58
2019-05-12T05:01:34.625Z,65.90
2019-05-12T05:02:36.504Z,64.94
2019-05-12T05:03:34.971Z,66.87
2019-05-12T05:04:34.771Z,60.75
2019-05-12T05:05:35.610Z,61.07
2019-05-12T05:06:34.651Z,60.26
2019-05-12T05:07:35.965Z,62.04
2019-05-12T05:08:35.083Z,61.55
2019-05-12T05:09:34.980Z,60.26
2019-05-12T05:10:35.324Z,60.75
2019-05-12T05:11:34.682Z,60.59
2019-05-12T05:12:35.660Z,61.39
2019-05-12T05:13:38.815Z,59.94
2019-05-12T05:14:36.074Z,57.36
2019-05-12T05:15:35.543Z,57.04
2019-05-12T05:16:35.448Z,50.76
2019-05-12T05:17:35.600Z,50.60
2019-05-12T05:18:35.784Z,53.17
2019-05-12T05:19:35.948Z,47.70
2019-05-12T05:20:36.150Z,43.99
2019-05-12T05:21:36.328Z,50.76
2019-05-12T05:22:38.197Z,61.07
2019-05-12T05:23:37.686Z,56.24
2019-05-12T05:24:36.813Z,58.65
2019-05-12T05:25:36.982Z,57.36
2019-05-12T05:26:37.511Z,57.04
2019-05-12T05:27:38.368Z,59.14
2019-05-12T05:28:37.601Z,72.67
2019-05-12T05:29:37.750Z,54.79
2019-05-12T05:30:37.917Z,71.22
2019-05-12T05:31:38.076Z,56.40
2019-05-12T05:32:38.230Z,57.36
2019-05-12T05:33:38.385Z,71.22
2019-05-12T05:34:38.530Z,61.87
2019-05-12T05:35:39.813Z,71.87
2019-05-12T05:36:39.907Z,63.00
2019-05-12T05:37:41.471Z,63.33
2019-05-12T05:38:40.213Z,62.84
2019-05-12T05:39:47.601Z,75.57
2019-05-12T05:40:43.381Z,64.29
2019-05-12T05:41:48.884Z,73.48
2019-05-12T05:42:43.899Z,70.09
2019-05-12T05:43:40.107Z,69.13
2019-05-12T05:44:40.263Z,72.35
2019-05-12T05:45:40.407Z,68.80
2019-05-12T05:46:47.708Z,48.82
2019-05-12T05:47:44.230Z,47.37
2019-05-12T05:48:40.905Z,54.14
2019-05-12T05:49:43.322Z,52.53
2019-05-12T05:50:43.705Z,51.72
2019-05-12T05:51:46.667Z,58.81
2019-05-12T05:52:43.887Z,54.79
2019-05-12T05:53:44.028Z,47.86
2019-05-12T05:54:43.887Z,75.57
2019-05-12T05:55:44.098Z,49.63
2019-05-12T05:56:48.458Z,53.01
2019-05-12T05:57:44.565Z,58.81
2019-05-12T05:58:47.103Z,72.83
2019-05-12T05:59:44.859Z,68.00
2019-05-12T06:00:44.058Z,62.84
2019-05-12T06:01:47.002Z,63.97
2019-05-12T06:02:45.528Z,71.54
2019-05-12T06:03:44.744Z,69.13
2019-05-12T06:04:45.431Z,70.74
2019-05-12T06:05:46.194Z,62.36
2019-05-12T06:06:50.899Z,64.45
2019-05-12T06:07:46.665Z,72.35
2019-05-12T06:08:44.773Z,63.00
2019-05-12T06:09:44.897Z,60.42
2019-05-12T06:10:45.027Z,61.23
2019-05-12T06:11:45.178Z,62.84
2019-05-12T06:12:50.527Z,68.16
2019-05-12T06:13:47.485Z,68.64
2019-05-12T06:14:46.702Z,73.96
2019-05-12T06:15:47.836Z,70.25
2019-05-12T06:16:46.075Z,65.42
2019-05-12T06:17:46.301Z,69.61
2019-05-12T06:18:46.477Z,66.39
2019-05-12T06:19:46.685Z,64.78
2019-05-12T06:20:46.861Z,72.35
2019-05-12T06:21:47.001Z,63.33
2019-05-12T06:22:48.526Z,71.87
2019-05-12T06:23:49.275Z,65.26
2019-05-12T06:24:49.112Z,64.94
2019-05-12T06:25:51.595Z,70.90
2019-05-12T06:26:57.678Z,71.54
2019-05-12T06:27:51.185Z,48.66
2019-05-12T06:28:50.138Z,73.15
2019-05-12T06:29:54.461Z,53.01
2019-05-12T06:30:50.156Z,56.24
2019-05-12T06:31:49.619Z,68.96
2019-05-12T06:32:51.780Z,73.15
2019-05-12T06:33:49.970Z,71.38
2019-05-12T06:34:50.877Z,71.38
2019-05-12T06:35:51.309Z,58.01
2019-05-12T06:36:49.463Z,58.65
2019-05-12T06:37:57.731Z,76.38
2019-05-12T06:38:53.970Z,70.90
2019-05-12T06:39:50.971Z,61.87
2019-05-12T06:40:54.336Z,76.38
2019-05-12T06:41:50.399Z,66.06
2019-05-12T06:42:54.171Z,67.35
2019-05-12T06:43:54.121Z,75.09
2019-05-12T06:44:54.897Z,63.81
2019-05-12T06:45:54.459Z,63.16
2019-05-12T06:46:53.402Z,62.52
2019-05-12T06:47:56.042Z,62.36
2019-05-12T06:48:54.363Z,76.05
2019-05-12T06:49:56.467Z,65.58
2019-05-12T06:50:53.762Z,67.68
2019-05-12T06:52:01.289Z,67.03
2019-05-12T06:52:53.188Z,69.61
2019-05-12T06:53:53.450Z,69.29
2019-05-12T06:54:56.627Z,63.97
2019-05-12T06:55:54.107Z,71.87
2019-05-12T06:56:57.823Z,64.78
2019-05-12T06:57:55.176Z,61.55
2019-05-12T06:58:53.571Z,60.42
2019-05-12T06:59:55.189Z,64.13
2019-05-12T07:00:54.862Z,62.84
2019-05-12T07:01:56.112Z,65.42
2019-05-12T07:02:56.255Z,60.59
2019-05-12T07:03:55.360Z,63.81
2019-05-12T07:04:59.390Z,64.29
2019-05-12T07:05:56.768Z,71.06
2019-05-12T07:07:00.236Z,63.65
2019-05-12T07:07:57.045Z,63.65
2019-05-12T07:09:03.538Z,61.39
2019-05-12T07:10:10.376Z,61.23
2019-05-12T07:11:01.723Z,71.87
2019-05-12T07:12:02.717Z,51.88
2019-05-12T07:13:01.692Z,60.42
2019-05-12T07:14:04.475Z,54.46
2019-05-12T07:14:58.877Z,72.35
2019-05-12T07:15:57.407Z,71.06
2019-05-12T07:17:01.571Z,61.55
2019-05-12T07:17:58.673Z,60.59
2019-05-12T07:18:56.905Z,60.26
2019-05-12T07:19:58.404Z,59.14
2019-05-12T07:20:58.262Z,75.09
2019-05-12T07:22:00.084Z,72.67
2019-05-12T07:22:58.589Z,70.09
2019-05-12T07:24:00.422Z,73.48
2019-05-12T07:24:59.989Z,71.70
2019-05-12T07:25:58.136Z,66.55
2019-05-12T07:27:04.149Z,69.13
2019-05-12T07:28:04.175Z,71.87
2019-05-12T07:29:00.627Z,79.28
2019-05-12T07:29:58.755Z,63.49
2019-05-12T07:30:58.947Z,71.06
2019-05-12T07:31:59.124Z,72.83
2019-05-12T07:33:01.160Z,75.09
2019-05-12T07:34:04.237Z,63.49
2019-05-12T07:35:00.677Z,60.59
2019-05-12T07:36:01.305Z,72.35
2019-05-12T07:37:00.937Z,58.81
2019-05-12T07:38:00.336Z,56.72
2019-05-12T07:39:04.154Z,71.70
2019-05-12T07:40:04.629Z,69.61
2019-05-12T07:41:05.595Z,73.32
2019-05-12T07:42:03.632Z,69.77
2019-05-12T07:43:00.995Z,59.62
2019-05-12T07:44:03.424Z,72.03
2019-05-12T07:45:03.769Z,70.25
2019-05-12T07:46:06.693Z,66.71
2019-05-12T07:47:03.807Z,72.35
2019-05-12T07:48:08.107Z,52.69
2019-05-12T07:49:04.086Z,62.36
2019-05-12T07:50:04.483Z,61.39
2019-05-12T07:51:04.193Z,75.57
2019-05-12T07:52:03.746Z,75.41
2019-05-12T07:53:04.319Z,67.35
2019-05-12T07:54:04.143Z,71.70
2019-05-12T07:55:04.381Z,70.25
2019-05-12T07:56:04.309Z,67.84
2019-05-12T07:57:11.464Z,77.02
2019-05-12T07:58:13.673Z,77.18
2019-05-12T07:59:05.771Z,68.00
2019-05-12T08:00:03.888Z,71.54
2019-05-12T08:01:07.143Z,67.03
2019-05-12T08:02:05.201Z,73.48
2019-05-12T08:03:14.360Z,48.98
2019-05-12T08:04:06.504Z,69.77
2019-05-12T08:05:04.618Z,61.23
2019-05-12T08:06:04.831Z,60.42
2019-05-12T08:07:05.000Z,59.94
2019-05-12T08:08:09.573Z,64.29
2019-05-12T08:09:07.355Z,61.07
2019-05-12T08:10:07.168Z,65.74
2019-05-12T08:11:07.641Z,63.65
2019-05-12T08:12:09.584Z,61.39
2019-05-12T08:13:07.991Z,72.99
2019-05-12T08:14:06.202Z,76.05
2019-05-12T08:15:09.607Z,73.96
2019-05-12T08:16:07.538Z,63.33
2019-05-12T08:17:11.025Z,64.78
2019-05-12T08:18:08.862Z,60.59
2019-05-12T08:19:08.601Z,67.51
2019-05-12T08:20:08.321Z,61.87
2019-05-12T08:21:07.538Z,68.64
2019-05-12T08:22:07.604Z,60.42
2019-05-12T08:23:10.308Z,53.82
2019-05-12T08:24:09.019Z,58.33
2019-05-12T08:25:08.211Z,71.54
2019-05-12T08:26:11.974Z,72.67
2019-05-12T08:27:10.599Z,72.83
2019-05-12T08:28:16.245Z,56.24
2019-05-12T08:29:17.054Z,52.05
2019-05-12T08:30:13.638Z,73.48
2019-05-12T08:31:09.345Z,50.76
2019-05-12T08:32:10.013Z,63.81
2019-05-12T08:33:11.647Z,72.03
2019-05-12T08:34:09.800Z,75.57
2019-05-12T08:35:10.104Z,61.23
2019-05-12T08:36:11.713Z,68.64
2019-05-12T08:37:13.820Z,70.09
2019-05-12T08:38:10.592Z,72.19
2019-05-12T08:39:11.954Z,61.87
2019-05-12T08:40:15.390Z,60.75
2019-05-12T08:41:11.075Z,85.08
2019-05-12T08:42:11.288Z,64.29
2019-05-12T08:43:11.503Z,73.80
2019-05-12T08:44:13.537Z,71.70
2019-05-12T08:45:15.276Z,64.45
2019-05-12T08:46:15.724Z,73.48
2019-05-12T08:47:15.033Z,75.57
2019-05-12T08:48:17.009Z,73.96
2019-05-12T08:49:14.623Z,75.73
2019-05-12T08:50:13.877Z,63.16
2019-05-12T08:51:14.547Z,71.70
2019-05-12T08:52:14.278Z,70.90
2019-05-12T08:53:20.350Z,68.16
2019-05-12T08:54:15.437Z,69.77
2019-05-12T08:55:16.366Z,67.35
2019-05-12T08:56:19.236Z,68.64
2019-05-12T08:57:16.015Z,76.70
2019-05-12T08:58:29.605Z,71.22
2019-05-12T08:59:18.503Z,73.96
2019-05-12T09:00:15.468Z,68.64
2019-05-12T09:01:14.628Z,69.61
2019-05-12T09:02:14.892Z,61.87
2019-05-12T09:03:14.925Z,61.39
2019-05-12T09:04:18.264Z,68.48
2019-05-12T09:05:16.364Z,62.84
2019-05-12T09:06:19.478Z,68.16
2019-05-12T09:07:16.775Z,65.42
2019-05-12T09:08:15.883Z,67.84
2019-05-12T09:09:16.077Z,70.90
2019-05-12T09:10:16.267Z,73.48
2019-05-12T09:11:16.476Z,55.59
2019-05-12T09:12:16.650Z,53.17
2019-05-12T09:13:16.857Z,66.71
2019-05-12T09:14:17.053Z,70.09
2019-05-12T09:15:17.248Z,75.09
2019-05-12T09:16:17.440Z,65.74
2019-05-12T09:17:17.636Z,50.27
2019-05-12T09:18:19.039Z,51.40
2019-05-12T09:19:23.785Z,63.49
2019-05-12T09:20:20.155Z,72.67
2019-05-12T09:21:18.315Z,70.25
2019-05-12T09:22:20.849Z,65.42
2019-05-12T09:23:19.668Z,72.83
2019-05-12T09:24:21.999Z,72.99
2019-05-12T09:25:23.736Z,52.69
2019-05-12T09:26:26.680Z,72.35
2019-05-12T09:27:20.341Z,74.28
2019-05-12T09:28:19.516Z,73.15
2019-05-12T09:29:19.767Z,70.09
2019-05-12T09:30:19.955Z,73.96
2019-05-12T09:31:25.452Z,73.15
2019-05-12T09:32:23.466Z,72.51
2019-05-12T09:33:21.450Z,61.87
2019-05-12T09:34:23.482Z,61.87
2019-05-12T09:35:23.582Z,72.51
2019-05-12T09:36:21.772Z,66.06
2019-05-12T09:37:24.054Z,69.29
2019-05-12T09:38:23.261Z,63.16
2019-05-12T09:39:23.482Z,68.16
2019-05-12T09:40:24.658Z,66.71
2019-05-12T09:41:23.926Z,73.32
2019-05-12T09:42:25.643Z,70.42
2019-05-12T09:43:24.219Z,66.55
2019-05-12T09:44:26.536Z,66.71
2019-05-12T09:45:24.512Z,68.96
2019-05-12T09:46:23.326Z,71.22
2019-05-12T09:47:27.590Z,55.27
2019-05-12T09:48:24.704Z,60.42
2019-05-12T09:49:31.428Z,67.19
2019-05-12T09:50:25.530Z,51.40
2019-05-12T09:51:23.912Z,59.94
2019-05-12T09:52:27.188Z,66.06
2019-05-12T09:53:25.142Z,74.60
2019-05-12T09:54:27.837Z,67.51
2019-05-12T09:55:26.510Z,74.60
2019-05-12T09:56:24.635Z,55.43
2019-05-12T09:57:24.847Z,53.01
2019-05-12T09:58:27.301Z,72.35
2019-05-12T09:59:26.221Z,54.14
2019-05-12T10:00:30.078Z,72.51
2019-05-12T10:01:29.309Z,88.62
2019-05-12T10:02:27.757Z,84.27
2019-05-12T10:03:25.895Z,84.76
2019-05-12T10:04:26.101Z,83.14
2019-05-12T10:05:30.453Z,84.76
2019-05-12T10:06:27.510Z,78.47
2019-05-12T10:07:26.647Z,66.39
2019-05-12T10:08:29.427Z,63.33
2019-05-12T10:09:29.067Z,70.90
2019-05-12T10:10:29.023Z,72.51
2019-05-12T10:11:29.373Z,68.32
2019-05-12T10:12:29.881Z,58.97
2019-05-12T10:13:30.262Z,50.92
2019-05-12T10:14:28.874Z,67.35
2019-05-12T10:15:28.739Z,68.96
2019-05-12T10:16:29.162Z,71.22
2019-05-12T10:17:30.208Z,62.84
2019-05-12T10:18:29.427Z,73.64
2019-05-12T10:19:28.604Z,73.48
2019-05-12T10:20:29.122Z,64.13
2019-05-12T10:21:30.927Z,57.85
2019-05-12T10:22:29.995Z,50.11
2019-05-12T10:23:31.335Z,61.39
2019-05-12T10:24:34.445Z,76.54
2019-05-12T10:25:33.929Z,69.61
2019-05-12T10:26:30.866Z,70.25
2019-05-12T10:27:31.960Z,62.84
2019-05-12T10:28:31.147Z,64.45
2019-05-12T10:29:32.388Z,60.91
2019-05-12T10:30:30.517Z,68.80
2019-05-12T10:31:35.649Z,61.39
2019-05-12T10:32:34.282Z,73.80
2019-05-12T10:33:31.037Z,73.48
2019-05-12T10:34:36.018Z,73.96
2019-05-12T10:35:35.114Z,74.12
2019-05-12T10:36:33.643Z,72.51
2019-05-12T10:37:31.748Z,49.63
2019-05-12T10:38:34.226Z,68.48
2019-05-12T10:39:33.440Z,67.51
2019-05-12T10:40:33.866Z,73.96
2019-05-12T10:41:34.250Z,64.13
2019-05-12T10:42:33.751Z,71.06
2019-05-12T10:43:34.281Z,70.74
2019-05-12T10:44:39.258Z,71.54
2019-05-12T10:45:35.416Z,53.98
2019-05-12T10:46:33.579Z,69.77
2019-05-12T10:47:34.356Z,65.26
2019-05-12T10:48:34.951Z,69.61
2019-05-12T10:49:34.091Z,75.89
2019-05-12T10:50:34.428Z,71.87
2019-05-12T10:51:34.501Z,76.22
2019-05-12T10:52:38.854Z,54.79
2019-05-12T10:53:34.919Z,65.58
2019-05-12T10:54:35.147Z,77.99
2019-05-12T10:55:35.334Z,72.99
2019-05-12T10:56:35.546Z,66.87
2019-05-12T10:57:35.764Z,69.77
2019-05-12T10:58:36.011Z,66.71
2019-05-12T10:59:38.915Z,53.66
2019-05-12T11:00:38.306Z,66.87
2019-05-12T11:01:38.360Z,71.22
2019-05-12T11:02:38.669Z,63.97
2019-05-12T11:03:36.855Z,72.99
2019-05-12T11:04:40.934Z,69.29
2019-05-12T11:05:38.154Z,70.90
2019-05-12T11:06:39.696Z,68.80
2019-05-12T11:07:39.493Z,71.38
2019-05-12T11:08:41.264Z,68.48
2019-05-12T11:09:39.829Z,75.73
2019-05-12T11:10:37.992Z,67.68
2019-05-12T11:11:42.374Z,71.38
2019-05-12T11:12:40.403Z,59.78
2019-05-12T11:13:40.390Z,53.66
2019-05-12T11:14:40.761Z,64.78
2019-05-12T11:15:39.415Z,47.86
2019-05-12T11:16:42.516Z,70.74
2019-05-12T11:17:40.394Z,67.35
2019-05-12T11:18:40.437Z,49.79
2019-05-12T11:19:40.633Z,70.74
2019-05-12T11:20:41.736Z,52.37
2019-05-12T11:21:40.879Z,72.67
2019-05-12T11:22:40.048Z,68.96
2019-05-12T11:23:40.221Z,69.13
2019-05-12T11:24:44.209Z,54.14
2019-05-12T11:25:40.607Z,49.15
2019-05-12T11:26:43.112Z,78.47
2019-05-12T11:27:40.925Z,73.48
2019-05-12T11:28:41.049Z,64.61
2019-05-12T11:29:46.245Z,74.44
2019-05-12T11:30:43.766Z,71.54
2019-05-12T11:31:44.084Z,66.71
2019-05-12T11:32:44.156Z,69.61
2019-05-12T11:33:43.603Z,67.35
2019-05-12T11:34:43.826Z,64.94
2019-05-12T11:35:43.522Z,71.87
2019-05-12T11:36:43.845Z,71.70
2019-05-12T11:37:43.520Z,72.19
2019-05-12T11:38:44.408Z,71.54
2019-05-12T11:39:46.886Z,72.67
2019-05-12T11:40:43.978Z,74.93
2019-05-12T11:41:44.313Z,72.19
2019-05-12T11:42:48.400Z,64.78
2019-05-12T11:43:45.611Z,68.48
2019-05-12T11:44:44.305Z,66.06
2019-05-12T11:45:44.957Z,77.18
2019-05-12T11:46:44.313Z,65.26
2019-05-12T11:47:45.239Z,70.74
2019-05-12T11:48:46.297Z,68.96
2019-05-12T11:49:46.583Z,72.51
2019-05-12T11:50:47.830Z,69.13
2019-05-12T11:51:46.853Z,72.19
2019-05-12T11:52:45.948Z,68.96
2019-05-12T11:53:46.316Z,75.41
2019-05-12T11:54:47.223Z,68.80
2019-05-12T11:55:47.592Z,74.28
2019-05-12T11:56:49.183Z,60.10
2019-05-12T11:57:46.865Z,71.38
2019-05-12T11:58:47.431Z,59.46
2019-05-12T11:59:59.168Z,71.22
2019-05-12T12:00:48.478Z,58.81
2019-05-12T12:01:49.757Z,69.77
2019-05-12T12:02:47.859Z,55.43
2019-05-12T12:03:46.992Z,72.19
2019-05-12T12:04:47.129Z,63.49
2019-05-12T12:05:47.333Z,67.19
2019-05-12T12:06:47.511Z,72.19
2019-05-12T12:07:51.261Z,60.91
2019-05-12T12:08:49.931Z,69.77
2019-05-12T12:09:49.493Z,67.35
2019-05-12T12:10:50.159Z,65.26
2019-05-12T12:11:56.731Z,59.94
2019-05-12T12:12:49.538Z,65.10
2019-05-12T12:13:49.649Z,71.22
2019-05-12T12:14:50.299Z,67.19
2019-05-12T12:15:50.016Z,69.61
2019-05-12T12:16:50.451Z,71.70
2019-05-12T12:17:50.317Z,45.92
2019-05-12T12:18:56.100Z,50.11
2019-05-12T12:19:54.270Z,70.25
2019-05-12T12:20:56.653Z,68.16
2019-05-12T12:21:50.986Z,66.55
2019-05-12T12:22:51.185Z,70.74
2019-05-12T12:23:50.369Z,70.09
2019-05-12T12:24:50.544Z,70.09
2019-05-12T12:25:50.767Z,73.96
2019-05-12T12:26:53.603Z,74.28
2019-05-12T12:27:53.561Z,68.64
2019-05-12T12:28:51.282Z,67.68
2019-05-12T12:29:51.446Z,73.15
2019-05-12T12:30:55.145Z,69.13
2019-05-12T12:31:52.805Z,66.87
2019-05-12T12:32:56.677Z,66.39
2019-05-12T12:33:54.129Z,75.25
2019-05-12T12:34:54.424Z,63.16
2019-05-12T12:35:56.620Z,68.80
2019-05-12T12:36:54.736Z,66.71
2019-05-12T12:37:54.223Z,66.71
2019-05-12T12:38:54.106Z,59.94
2019-05-12T12:39:53.658Z,60.91
2019-05-12T12:40:54.535Z,70.74
2019-05-12T12:41:59.690Z,71.87
2019-05-12T12:42:55.927Z,63.00
2019-05-12T12:43:54.238Z,61.07
2019-05-12T12:44:58.887Z,69.61
2019-05-12T12:45:56.299Z,59.46
2019-05-12T12:46:59.974Z,66.23
2019-05-12T12:47:56.583Z,69.61
2019-05-12T12:48:54.707Z,70.09
2019-05-12T12:49:54.868Z,64.78
2019-05-12T12:50:55.056Z,69.61
2019-05-12T12:51:55.237Z,63.00
2019-05-12T12:52:55.454Z,68.64
2019-05-12T12:53:55.666Z,63.65
2019-05-12T12:54:59.333Z,64.13